createdAt,value
2019-04-27T06:31:59.368Z,75.82
2019-04-27T06:37:58.717Z,76.16
2019-04-27T06:43:59.276Z,75.90
2019-04-27T06:49:58.839Z,76.44
2019-04-27T06:55:58.803Z,77.18
2019-04-27T07:02:00.570Z,76.88
2019-04-27T07:07:59.151Z,76.44
2019-04-27T07:13:59.424Z,75.93
2019-04-27T07:19:59.469Z,77.54
2019-04-27T07:25:59.862Z,78.09
2019-04-27T07:31:59.658Z,78.46
2019-04-27T07:37:58.955Z,79.43
2019-04-27T07:43:58.777Z,80.59
2019-04-27T07:50:01.674Z,80.79
2019-04-27T07:55:59.338Z,82.15
2019-04-27T08:01:59.174Z,81.68
2019-04-27T08:08:00.174Z,82.09
2019-04-27T08:13:58.932Z,83.33
2019-04-27T08:19:59.584Z,83.66
2019-04-27T08:25:58.968Z,84.01
2019-04-27T08:31:58.855Z,83.78
2019-04-27T08:37:59.404Z,84.78
2019-04-27T08:43:58.837Z,85.31
2019-04-27T08:49:59.168Z,85.84
2019-04-27T08:55:59.244Z,85.59
2019-04-27T09:01:58.844Z,85.81
2019-04-27T09:07:59.724Z,86.18
2019-04-27T09:14:16.884Z,87.68
2019-04-27T09:19:59.117Z,87.60
2019-04-27T09:25:59.502Z,87.93
2019-04-27T09:32:01.528Z,85.16
2019-04-27T09:37:58.867Z,84.82
2019-04-27T09:43:58.813Z,81.84
2019-04-27T09:49:58.781Z,80.64
2019-04-27T09:55:58.885Z,80.94
2019-04-27T10:01:58.885Z,78.61
2019-04-27T10:07:58.811Z,77.36
2019-04-27T10:13:58.872Z,76.04
2019-04-27T10:19:58.819Z,77.54
2019-04-27T10:25:58.920Z,77.57
2019-04-27T10:31:58.965Z,77.49
2019-04-27T10:37:58.816Z,80.02
2019-04-27T10:43:58.892Z,79.44
2019-04-27T10:49:58.890Z,78.54
2019-04-27T10:55:58.942Z,71.89
2019-04-27T11:01:58.839Z,73.15
2019-04-27T11:07:58.897Z,71.74
2019-04-27T11:14:00.924Z,68.54
2019-04-27T11:19:58.874Z,69.98
2019-04-27T11:26:02.315Z,74.48
2019-04-27T11:31:58.948Z,74.40
2019-04-27T11:37:58.899Z,79.07
2019-04-27T11:43:58.834Z,79.56
2019-04-27T11:49:58.864Z,81.50
2019-04-27T11:55:58.923Z,81.63
2019-04-27T12:01:58.956Z,77.78
2019-04-27T12:07:58.929Z,76.02
2019-04-27T12:13:58.856Z,74.98
2019-04-27T12:19:58.968Z,71.81
2019-04-27T12:25:58.885Z,72.94
2019-04-27T12:32:45.690Z,72.48
2019-04-27T12:38:46.705Z,73.47
2019-04-27T12:44:44.903Z,73.61
2019-04-27T12:50:46.234Z,74.84
2019-04-27T12:56:45.778Z,75.21
2019-04-27T13:02:45.001Z,75.10
2019-04-27T13:08:45.796Z,72.86
2019-04-27T13:14:45.759Z,73.51
2019-04-27T13:20:44.908Z,75.50
2019-04-27T13:26:45.647Z,82.98
2019-04-27T13:32:45.960Z,86.23
2019-04-27T13:38:46.635Z,91.31
2019-04-27T13:44:45.603Z,93.47
2019-04-27T13:50:45.711Z,91.39
2019-04-27T13:56:46.005Z,91.94
2019-04-27T14:02:45.009Z,92.42
2019-04-27T14:08:45.045Z,92.93
2019-04-27T14:14:45.095Z,92.15
2019-04-27T14:20:46.037Z,91.35
2019-04-27T14:26:44.994Z,91.17
2019-04-27T14:32:45.014Z,90.85
